sensor_id;sensor_type;location;lat;lon;timestamp;P1;durP1;ratioP1;P2;durP2;ratioP2
65871;SDS011;52653;50.080;21.992;2022-10-22T00:00:47;7.10;;;4.20;;
65871;SDS011;52653;50.080;21.992;2022-10-22T00:03:34;8.90;;;5.00;;
65871;SDS011;52653;50.080;21.992;2022-10-22T00:06:06;9.50;;;3.90;;
65871;SDS011;52653;50.080;21.992;2022-10-22T00:08:38;9.50;;;4.40;;
65871;SDS011;52653;50.080;21.992;2022-10-22T00:11:11;10.00;;;4.20;;
65871;SDS011;52653;50.080;21.992;2022-10-22T00:13:45;7.20;;;4.20;;
65871;SDS011;52653;50.080;21.992;2022-10-22T00:16:17;7.40;;;4.60;;
65871;SDS011;52653;50.080;21.992;2022-10-22T00:18:49;6.80;;;4.10;;
65871;SDS011;52653;50.080;21.992;2022-10-22T00:21:21;10.30;;;4.40;;
65871;SDS011;52653;50.080;21.992;2022-10-22T00:23:53;6.80;;;4.10;;
65871;SDS011;52653;50.080;21.992;2022-10-22T00:26:25;7.30;;;3.90;;
65871;SDS011;52653;50.080;21.992;2022-10-22T00:28:57;7.10;;;3.90;;
65871;SDS011;52653;50.080;21.992;2022-10-22T00:31:29;7.10;;;4.20;;
65871;SDS011;52653;50.080;21.992;2022-10-22T00:34:01;8.80;;;4.30;;
65871;SDS011;52653;50.080;21.992;2022-10-22T00:36:33;6.90;;;4.50;;
65871;SDS011;52653;50.080;21.992;2022-10-22T00:39:04;8.70;;;4.00;;
65871;SDS011;52653;50.080;21.992;2022-10-22T00:41:36;6.70;;;3.90;;
65871;SDS011;52653;50.080;21.992;2022-10-22T00:47:10;7.90;;;4.70;;
65871;SDS011;52653;50.080;21.992;2022-10-22T00:49:42;9.20;;;4.60;;
65871;SDS011;52653;50.080;21.992;2022-10-22T00:52:15;21.30;;;10.90;;
65871;SDS011;52653;50.080;21.992;2022-10-22T00:54:47;15.00;;;7.90;;
65871;SDS011;52653;50.080;21.992;2022-10-22T00:57:19;12.30;;;6.50;;
65871;SDS011;52653;50.080;21.992;2022-10-22T00:59:51;9.50;;;5.70;;
65871;SDS011;52653;50.080;21.992;2022-10-22T01:02:26;10.70;;;5.70;;
65871;SDS011;52653;50.080;21.992;2022-10-22T01:04:58;16.10;;;7.80;;
65871;SDS011;52653;50.080;21.992;2022-10-22T01:07:29;16.20;;;7.70;;
65871;SDS011;52653;50.080;21.992;2022-10-22T01:10:04;41.30;;;18.90;;
65871;SDS011;52653;50.080;21.992;2022-10-22T01:12:46;19.80;;;9.70;;
65871;SDS011;52653;50.080;21.992;2022-10-22T01:15:27;26.10;;;11.70;;
65871;SDS011;52653;50.080;21.992;2022-10-22T01:18:07;21.20;;;9.50;;
65871;SDS011;52653;50.080;21.992;2022-10-22T01:26:49;28.70;;;13.30;;
65871;SDS011;52653;50.080;21.992;2022-10-22T01:29:30;16.00;;;7.60;;
65871;SDS011;52653;50.080;21.992;2022-10-22T01:32:08;14.00;;;5.60;;
65871;SDS011;52653;50.080;21.992;2022-10-22T01:34:45;8.30;;;5.30;;
65871;SDS011;52653;50.080;21.992;2022-10-22T01:37:21;9.10;;;5.20;;
65871;SDS011;52653;50.080;21.992;2022-10-22T01:39:54;10.80;;;6.10;;
65871;SDS011;52653;50.080;21.992;2022-10-22T01:42:28;17.50;;;9.70;;
65871;SDS011;52653;50.080;21.992;2022-10-22T01:45:00;15.50;;;8.30;;
65871;SDS011;52653;50.080;21.992;2022-10-22T01:47:44;9.10;;;5.10;;
65871;SDS011;52653;50.080;21.992;2022-10-22T01:50:29;8.30;;;4.80;;
65871;SDS011;52653;50.080;21.992;2022-10-22T01:56:08;7.90;;;4.50;;
65871;SDS011;52653;50.080;21.992;2022-10-22T01:58:53;8.70;;;4.40;;
65871;SDS011;52653;50.080;21.992;2022-10-22T02:01:32;7.90;;;4.30;;
65871;SDS011;52653;50.080;21.992;2022-10-22T02:04:12;8.50;;;4.70;;
65871;SDS011;52653;50.080;21.992;2022-10-22T02:06:48;8.00;;;5.20;;
65871;SDS011;52653;50.080;21.992;2022-10-22T02:09:24;9.80;;;5.30;;
65871;SDS011;52653;50.080;21.992;2022-10-22T02:11:58;10.00;;;5.00;;
65871;SDS011;52653;50.080;21.992;2022-10-22T02:14:39;9.40;;;4.80;;
65871;SDS011;52653;50.080;21.992;2022-10-22T02:17:13;9.50;;;4.70;;
65871;SDS011;52653;50.080;21.992;2022-10-22T02:19:49;9.20;;;4.30;;
65871;SDS011;52653;50.080;21.992;2022-10-22T02:22:24;12.50;;;5.00;;
65871;SDS011;52653;50.080;21.992;2022-10-22T02:24:57;8.60;;;5.20;;
65871;SDS011;52653;50.080;21.992;2022-10-22T02:27:30;10.50;;;4.80;;
65871;SDS011;52653;50.080;21.992;2022-10-22T02:30:08;9.10;;;4.50;;
65871;SDS011;52653;50.080;21.992;2022-10-22T02:32:46;7.90;;;4.30;;
65871;SDS011;52653;50.080;21.992;2022-10-22T02:35:28;9.30;;;4.70;;
65871;SDS011;52653;50.080;21.992;2022-10-22T02:38:00;9.70;;;4.50;;
65871;SDS011;52653;50.080;21.992;2022-10-22T02:40:33;9.00;;;4.50;;
65871;SDS011;52653;50.080;21.992;2022-10-22T02:43:05;8.40;;;4.60;;
65871;SDS011;52653;50.080;21.992;2022-10-22T02:45:37;9.60;;;5.10;;
65871;SDS011;52653;50.080;21.992;2022-10-22T02:48:11;8.60;;;4.70;;
65871;SDS011;52653;50.080;21.992;2022-10-22T02:50:43;9.80;;;5.10;;
65871;SDS011;52653;50.080;21.992;2022-10-22T02:53:15;10.00;;;4.60;;
65871;SDS011;52653;50.080;21.992;2022-10-22T02:55:47;8.30;;;5.10;;
65871;SDS011;52653;50.080;21.992;2022-10-22T02:58:19;8.40;;;4.40;;
65871;SDS011;52653;50.080;21.992;2022-10-22T03:00:51;8.80;;;4.90;;
65871;SDS011;52653;50.080;21.992;2022-10-22T03:03:23;8.50;;;4.60;;
65871;SDS011;52653;50.080;21.992;2022-10-22T03:05:54;8.50;;;4.60;;
65871;SDS011;52653;50.080;21.992;2022-10-22T03:08:26;7.80;;;4.80;;
65871;SDS011;52653;50.080;21.992;2022-10-22T03:10:58;7.80;;;4.60;;
65871;SDS011;52653;50.080;21.992;2022-10-22T03:13:30;8.70;;;4.60;;
65871;SDS011;52653;50.080;21.992;2022-10-22T03:16:02;7.90;;;4.60;;
65871;SDS011;52653;50.080;21.992;2022-10-22T03:18:34;8.60;;;4.70;;
65871;SDS011;52653;50.080;21.992;2022-10-22T03:21:08;8.90;;;5.00;;
65871;SDS011;52653;50.080;21.992;2022-10-22T03:23:44;9.00;;;5.00;;
65871;SDS011;52653;50.080;21.992;2022-10-22T03:26:17;9.20;;;4.70;;
65871;SDS011;52653;50.080;21.992;2022-10-22T03:28:50;9.40;;;4.90;;
65871;SDS011;52653;50.080;21.992;2022-10-22T03:31:22;10.50;;;4.90;;
65871;SDS011;52653;50.080;21.992;2022-10-22T03:33:55;7.80;;;4.70;;
65871;SDS011;52653;50.080;21.992;2022-10-22T03:36:26;9.80;;;5.10;;
65871;SDS011;52653;50.080;21.992;2022-10-22T03:38:59;9.40;;;5.10;;
65871;SDS011;52653;50.080;21.992;2022-10-22T03:41:31;8.20;;;5.00;;
65871;SDS011;52653;50.080;21.992;2022-10-22T03:44:04;9.90;;;5.20;;
65871;SDS011;52653;50.080;21.992;2022-10-22T03:46:36;9.90;;;5.10;;
65871;SDS011;52653;50.080;21.992;2022-10-22T03:49:08;8.10;;;4.90;;
65871;SDS011;52653;50.080;21.992;2022-10-22T03:51:39;8.40;;;5.20;;
65871;SDS011;52653;50.080;21.992;2022-10-22T03:54:11;10.70;;;5.70;;
65871;SDS011;52653;50.080;21.992;2022-10-22T03:56:44;9.80;;;5.30;;
65871;SDS011;52653;50.080;21.992;2022-10-22T03:59:16;9.30;;;5.50;;
65871;SDS011;52653;50.080;21.992;2022-10-22T04:01:48;8.70;;;5.10;;
65871;SDS011;52653;50.080;21.992;2022-10-22T04:04:19;11.30;;;5.60;;
65871;SDS011;52653;50.080;21.992;2022-10-22T04:06:51;9.00;;;5.20;;
65871;SDS011;52653;50.080;21.992;2022-10-22T04:09:23;8.90;;;5.10;;
65871;SDS011;52653;50.080;21.992;2022-10-22T04:11:55;9.90;;;5.60;;
65871;SDS011;52653;50.080;21.992;2022-10-22T04:14:27;9.90;;;5.90;;
65871;SDS011;52653;50.080;21.992;2022-10-22T04:16:59;9.00;;;5.10;;
65871;SDS011;52653;50.080;21.992;2022-10-22T04:19:32;8.80;;;5.10;;
65871;SDS011;52653;50.080;21.992;2022-10-22T04:22:03;10.80;;;5.50;;
65871;SDS011;52653;50.080;21.992;2022-10-22T04:24:35;9.10;;;5.20;;
65871;SDS011;52653;50.080;21.992;2022-10-22T04:27:07;11.30;;;5.30;;
65871;SDS011;52653;50.080;21.992;2022-10-22T04:29:39;10.30;;;5.40;;
65871;SDS011;52653;50.080;21.992;2022-10-22T04:32:12;9.00;;;5.80;;
65871;SDS011;52653;50.080;21.992;2022-10-22T04:34:44;9.70;;;5.60;;
65871;SDS011;52653;50.080;21.992;2022-10-22T04:37:16;10.90;;;5.30;;
65871;SDS011;52653;50.080;21.992;2022-10-22T04:39:48;10.00;;;5.70;;
65871;SDS011;52653;50.080;21.992;2022-10-22T04:42:20;9.40;;;5.80;;
65871;SDS011;52653;50.080;21.992;2022-10-22T04:44:51;10.00;;;5.60;;
65871;SDS011;52653;50.080;21.992;2022-10-22T04:47:23;10.50;;;5.20;;
65871;SDS011;52653;50.080;21.992;2022-10-22T04:49:55;8.50;;;5.40;;
65871;SDS011;52653;50.080;21.992;2022-10-22T04:52:26;9.10;;;5.30;;
65871;SDS011;52653;50.080;21.992;2022-10-22T04:54:59;10.90;;;5.40;;
65871;SDS011;52653;50.080;21.992;2022-10-22T04:57:31;9.60;;;5.60;;
65871;SDS011;52653;50.080;21.992;2022-10-22T05:00:04;9.80;;;5.40;;
65871;SDS011;52653;50.080;21.992;2022-10-22T05:02:37;15.10;;;8.20;;
65871;SDS011;52653;50.080;21.992;2022-10-22T05:05:12;13.90;;;7.90;;
65871;SDS011;52653;50.080;21.992;2022-10-22T05:07:44;21.80;;;11.60;;
65871;SDS011;52653;50.080;21.992;2022-10-22T05:10:16;11.50;;;6.50;;
65871;SDS011;52653;50.080;21.992;2022-10-22T05:12:48;18.20;;;10.20;;
65871;SDS011;52653;50.080;21.992;2022-10-22T05:15:19;16.80;;;9.90;;
65871;SDS011;52653;50.080;21.992;2022-10-22T05:17:51;14.60;;;8.40;;
65871;SDS011;52653;50.080;21.992;2022-10-22T05:20:23;14.00;;;8.20;;
65871;SDS011;52653;50.080;21.992;2022-10-22T05:22:55;14.00;;;7.10;;
65871;SDS011;52653;50.080;21.992;2022-10-22T05:25:27;11.10;;;6.90;;
65871;SDS011;52653;50.080;21.992;2022-10-22T05:27:59;11.30;;;6.80;;
65871;SDS011;52653;50.080;21.992;2022-10-22T05:30:31;11.00;;;6.90;;
65871;SDS011;52653;50.080;21.992;2022-10-22T05:33:03;10.30;;;7.10;;
65871;SDS011;52653;50.080;21.992;2022-10-22T05:35:34;12.50;;;6.30;;
65871;SDS011;52653;50.080;21.992;2022-10-22T05:38:06;10.60;;;6.20;;
65871;SDS011;52653;50.080;21.992;2022-10-22T05:40:38;16.00;;;8.40;;
65871;SDS011;52653;50.080;21.992;2022-10-22T05:43:10;12.00;;;7.40;;
65871;SDS011;52653;50.080;21.992;2022-10-22T05:45:42;11.90;;;6.00;;
65871;SDS011;52653;50.080;21.992;2022-10-22T05:48:14;11.00;;;6.30;;
65871;SDS011;52653;50.080;21.992;2022-10-22T05:50:45;14.40;;;6.20;;
65871;SDS011;52653;50.080;21.992;2022-10-22T05:53:18;9.70;;;6.10;;
65871;SDS011;52653;50.080;21.992;2022-10-22T05:55:50;11.10;;;6.90;;
65871;SDS011;52653;50.080;21.992;2022-10-22T05:58:22;10.30;;;5.90;;
65871;SDS011;52653;50.080;21.992;2022-10-22T06:01:01;10.60;;;6.40;;
65871;SDS011;52653;50.080;21.992;2022-10-22T06:03:34;10.50;;;5.90;;
65871;SDS011;52653;50.080;21.992;2022-10-22T06:06:06;10.70;;;6.10;;
65871;SDS011;52653;50.080;21.992;2022-10-22T06:08:46;10.40;;;5.70;;
65871;SDS011;52653;50.080;21.992;2022-10-22T06:11:20;11.10;;;6.20;;
65871;SDS011;52653;50.080;21.992;2022-10-22T06:13:53;9.20;;;6.20;;
65871;SDS011;52653;50.080;21.992;2022-10-22T06:16:24;11.30;;;6.50;;
65871;SDS011;52653;50.080;21.992;2022-10-22T06:18:59;9.00;;;5.90;;
65871;SDS011;52653;50.080;21.992;2022-10-22T06:21:34;12.90;;;6.80;;
65871;SDS011;52653;50.080;21.992;2022-10-22T06:24:06;10.70;;;6.50;;
65871;SDS011;52653;50.080;21.992;2022-10-22T06:26:39;11.10;;;6.40;;
65871;SDS011;52653;50.080;21.992;2022-10-22T06:29:11;10.30;;;6.30;;
65871;SDS011;52653;50.080;21.992;2022-10-22T06:31:43;12.00;;;6.60;;
65871;SDS011;52653;50.080;21.992;2022-10-22T06:34:15;10.60;;;7.10;;
65871;SDS011;52653;50.080;21.992;2022-10-22T06:36:47;10.30;;;6.70;;
65871;SDS011;52653;50.080;21.992;2022-10-22T06:39:20;12.70;;;7.30;;
65871;SDS011;52653;50.080;21.992;2022-10-22T06:41:51;10.90;;;7.00;;
65871;SDS011;52653;50.080;21.992;2022-10-22T06:44:23;12.90;;;8.60;;
65871;SDS011;52653;50.080;21.992;2022-10-22T06:46:55;13.40;;;9.20;;
65871;SDS011;52653;50.080;21.992;2022-10-22T06:49:27;14.70;;;8.10;;
65871;SDS011;52653;50.080;21.992;2022-10-22T06:51:59;11.50;;;7.50;;
65871;SDS011;52653;50.080;21.992;2022-10-22T06:54:31;13.10;;;7.80;;
65871;SDS011;52653;50.080;21.992;2022-10-22T06:57:03;12.40;;;6.90;;
65871;SDS011;52653;50.080;21.992;2022-10-22T06:59:36;11.40;;;7.60;;
65871;SDS011;52653;50.080;21.992;2022-10-22T07:02:08;11.50;;;7.30;;
65871;SDS011;52653;50.080;21.992;2022-10-22T07:04:40;12.60;;;7.30;;
65871;SDS011;52653;50.080;21.992;2022-10-22T07:07:12;13.50;;;7.50;;
65871;SDS011;52653;50.080;21.992;2022-10-22T07:09:44;12.50;;;7.10;;
65871;SDS011;52653;50.080;21.992;2022-10-22T07:12:19;13.00;;;8.40;;
65871;SDS011;52653;50.080;21.992;2022-10-22T07:14:51;13.00;;;8.00;;
65871;SDS011;52653;50.080;21.992;2022-10-22T07:17:23;13.10;;;8.00;;
65871;SDS011;52653;50.080;21.992;2022-10-22T07:19:54;14.30;;;7.50;;
65871;SDS011;52653;50.080;21.992;2022-10-22T07:22:26;13.30;;;6.80;;
65871;SDS011;52653;50.080;21.992;2022-10-22T07:24:58;17.10;;;11.40;;
65871;SDS011;52653;50.080;21.992;2022-10-22T07:27:36;16.00;;;10.40;;
65871;SDS011;52653;50.080;21.992;2022-10-22T07:30:09;21.00;;;12.20;;
65871;SDS011;52653;50.080;21.992;2022-10-22T07:32:41;13.30;;;8.30;;
65871;SDS011;52653;50.080;21.992;2022-10-22T07:35:15;11.70;;;7.70;;
65871;SDS011;52653;50.080;21.992;2022-10-22T07:37:47;13.30;;;8.40;;
65871;SDS011;52653;50.080;21.992;2022-10-22T07:40:19;16.70;;;8.20;;
65871;SDS011;52653;50.080;21.992;2022-10-22T07:42:51;15.20;;;9.10;;
65871;SDS011;52653;50.080;21.992;2022-10-22T07:45:23;16.40;;;9.10;;
65871;SDS011;52653;50.080;21.992;2022-10-22T07:47:55;16.10;;;8.70;;
65871;SDS011;52653;50.080;21.992;2022-10-22T07:50:28;15.60;;;9.30;;
65871;SDS011;52653;50.080;21.992;2022-10-22T07:53:00;18.60;;;10.40;;
65871;SDS011;52653;50.080;21.992;2022-10-22T07:55:32;18.50;;;10.40;;
65871;SDS011;52653;50.080;21.992;2022-10-22T07:58:04;12.20;;;8.10;;
65871;SDS011;52653;50.080;21.992;2022-10-22T08:00:36;14.50;;;9.10;;
65871;SDS011;52653;50.080;21.992;2022-10-22T08:03:08;15.80;;;9.30;;
65871;SDS011;52653;50.080;21.992;2022-10-22T08:05:42;11.60;;;7.80;;
65871;SDS011;52653;50.080;21.992;2022-10-22T08:08:17;14.50;;;8.20;;
65871;SDS011;52653;50.080;21.992;2022-10-22T08:10:51;12.20;;;7.60;;
65871;SDS011;52653;50.080;21.992;2022-10-22T08:13:26;14.70;;;9.30;;
65871;SDS011;52653;50.080;21.992;2022-10-22T08:15:59;14.30;;;9.60;;
65871;SDS011;52653;50.080;21.992;2022-10-22T08:18:31;15.90;;;10.00;;
65871;SDS011;52653;50.080;21.992;2022-10-22T08:21:03;18.10;;;10.20;;
65871;SDS011;52653;50.080;21.992;2022-10-22T08:23:35;14.70;;;9.20;;
65871;SDS011;52653;50.080;21.992;2022-10-22T08:26:08;16.40;;;9.50;;
65871;SDS011;52653;50.080;21.992;2022-10-22T08:28:40;11.70;;;8.00;;
65871;SDS011;52653;50.080;21.992;2022-10-22T08:31:12;13.40;;;7.70;;
65871;SDS011;52653;50.080;21.992;2022-10-22T08:33:43;11.70;;;7.90;;
65871;SDS011;52653;50.080;21.992;2022-10-22T08:36:15;14.60;;;9.00;;
65871;SDS011;52653;50.080;21.992;2022-10-22T08:38:47;12.80;;;8.10;;
65871;SDS011;52653;50.080;21.992;2022-10-22T08:41:20;13.60;;;8.40;;
65871;SDS011;52653;50.080;21.992;2022-10-22T08:44:00;13.10;;;9.00;;
65871;SDS011;52653;50.080;21.992;2022-10-22T08:49:51;13.20;;;8.40;;
65871;SDS011;52653;50.080;21.992;2022-10-22T08:52:24;12.40;;;7.70;;
65871;SDS011;52653;50.080;21.992;2022-10-22T08:54:57;13.90;;;8.90;;
65871;SDS011;52653;50.080;21.992;2022-10-22T08:57:39;19.20;;;10.60;;
65871;SDS011;52653;50.080;21.992;2022-10-22T09:00:21;14.70;;;8.30;;
65871;SDS011;52653;50.080;21.992;2022-10-22T09:03:04;12.70;;;8.20;;
65871;SDS011;52653;50.080;21.992;2022-10-22T09:05:47;16.00;;;8.10;;
65871;SDS011;52653;50.080;21.992;2022-10-22T09:08:30;14.10;;;9.70;;
65871;SDS011;52653;50.080;21.992;2022-10-22T09:11:05;15.00;;;9.10;;
65871;SDS011;52653;50.080;21.992;2022-10-22T09:13:43;15.40;;;9.10;;
65871;SDS011;52653;50.080;21.992;2022-10-22T09:16:18;15.40;;;9.30;;
65871;SDS011;52653;50.080;21.992;2022-10-22T09:18:59;13.90;;;9.70;;
65871;SDS011;52653;50.080;21.992;2022-10-22T09:21:40;13.20;;;9.10;;
65871;SDS011;52653;50.080;21.992;2022-10-22T09:24:23;15.30;;;9.40;;
65871;SDS011;52653;50.080;21.992;2022-10-22T09:27:04;13.90;;;9.20;;
65871;SDS011;52653;50.080;21.992;2022-10-22T09:29:42;16.90;;;8.70;;
65871;SDS011;52653;50.080;21.992;2022-10-22T09:32:16;12.50;;;8.20;;
65871;SDS011;52653;50.080;21.992;2022-10-22T09:34:49;14.30;;;8.50;;
65871;SDS011;52653;50.080;21.992;2022-10-22T09:37:25;13.90;;;9.00;;
65871;SDS011;52653;50.080;21.992;2022-10-22T09:39:58;15.70;;;10.40;;
65871;SDS011;52653;50.080;21.992;2022-10-22T09:42:34;17.90;;;10.40;;
65871;SDS011;52653;50.080;21.992;2022-10-22T09:45:14;17.20;;;11.30;;
65871;SDS011;52653;50.080;21.992;2022-10-22T09:47:48;16.50;;;10.10;;
65871;SDS011;52653;50.080;21.992;2022-10-22T09:50:37;16.40;;;9.50;;
65871;SDS011;52653;50.080;21.992;2022-10-22T09:53:13;17.40;;;10.40;;
65871;SDS011;52653;50.080;21.992;2022-10-22T09:55:51;18.10;;;10.00;;
65871;SDS011;52653;50.080;21.992;2022-10-22T09:58:23;18.70;;;10.30;;
65871;SDS011;52653;50.080;21.992;2022-10-22T10:00:57;13.90;;;8.60;;
65871;SDS011;52653;50.080;21.992;2022-10-22T10:03:30;14.50;;;8.40;;
65871;SDS011;52653;50.080;21.992;2022-10-22T10:06:03;15.90;;;10.10;;
65871;SDS011;52653;50.080;21.992;2022-10-22T10:08:35;17.30;;;10.90;;
65871;SDS011;52653;50.080;21.992;2022-10-22T10:11:09;16.60;;;9.80;;
65871;SDS011;52653;50.080;21.992;2022-10-22T10:16:28;13.80;;;9.40;;
65871;SDS011;52653;50.080;21.992;2022-10-22T10:19:17;13.70;;;8.80;;
65871;SDS011;52653;50.080;21.992;2022-10-22T10:22:00;15.20;;;8.60;;
65871;SDS011;52653;50.080;21.992;2022-10-22T10:24:47;16.30;;;8.20;;
65871;SDS011;52653;50.080;21.992;2022-10-22T10:27:33;11.80;;;7.80;;
65871;SDS011;52653;50.080;21.992;2022-10-22T10:30:10;12.80;;;8.00;;
65871;SDS011;52653;50.080;21.992;2022-10-22T10:32:50;14.00;;;8.40;;
65871;SDS011;52653;50.080;21.992;2022-10-22T10:35:33;13.10;;;7.90;;
65871;SDS011;52653;50.080;21.992;2022-10-22T10:38:16;14.60;;;9.00;;
65871;SDS011;52653;50.080;21.992;2022-10-22T10:41:02;13.40;;;8.80;;
65871;SDS011;52653;50.080;21.992;2022-10-22T10:43:43;14.90;;;10.50;;
65871;SDS011;52653;50.080;21.992;2022-10-22T10:46:24;14.60;;;9.70;;
65871;SDS011;52653;50.080;21.992;2022-10-22T10:49:07;13.00;;;8.00;;
65871;SDS011;52653;50.080;21.992;2022-10-22T10:51:46;13.60;;;9.10;;
65871;SDS011;52653;50.080;21.992;2022-10-22T10:54:26;11.60;;;7.60;;
65871;SDS011;52653;50.080;21.992;2022-10-22T10:57:12;14.30;;;8.80;;
65871;SDS011;52653;50.080;21.992;2022-10-22T10:59:58;11.50;;;8.40;;
65871;SDS011;52653;50.080;21.992;2022-10-22T11:05:44;16.00;;;8.90;;
65871;SDS011;52653;50.080;21.992;2022-10-22T11:08:23;14.10;;;8.80;;
65871;SDS011;52653;50.080;21.992;2022-10-22T11:11:00;14.40;;;8.90;;
65871;SDS011;52653;50.080;21.992;2022-10-22T11:13:35;13.70;;;8.80;;
65871;SDS011;52653;50.080;21.992;2022-10-22T11:16:14;13.40;;;8.90;;
65871;SDS011;52653;50.080;21.992;2022-10-22T11:18:51;13.40;;;9.70;;
65871;SDS011;52653;50.080;21.992;2022-10-22T11:21:28;14.70;;;10.00;;
65871;SDS011;52653;50.080;21.992;2022-10-22T11:24:09;15.80;;;10.40;;
65871;SDS011;52653;50.080;21.992;2022-10-22T11:26:47;16.60;;;9.20;;
65871;SDS011;52653;50.080;21.992;2022-10-22T11:29:23;12.70;;;9.20;;
65871;SDS011;52653;50.080;21.992;2022-10-22T11:32:01;13.90;;;9.70;;
65871;SDS011;52653;50.080;21.992;2022-10-22T11:34:37;14.40;;;9.50;;
65871;SDS011;52653;50.080;21.992;2022-10-22T11:37:14;14.90;;;8.80;;
65871;SDS011;52653;50.080;21.992;2022-10-22T11:39:49;13.10;;;9.00;;
65871;SDS011;52653;50.080;21.992;2022-10-22T11:42:31;13.60;;;9.00;;
65871;SDS011;52653;50.080;21.992;2022-10-22T11:45:05;15.10;;;9.80;;
65871;SDS011;52653;50.080;21.992;2022-10-22T11:47:58;17.50;;;10.10;;
65871;SDS011;52653;50.080;21.992;2022-10-22T11:50:45;15.00;;;9.70;;
65871;SDS011;52653;50.080;21.992;2022-10-22T11:53:25;14.30;;;10.00;;
65871;SDS011;52653;50.080;21.992;2022-10-22T11:56:20;16.30;;;10.90;;
65871;SDS011;52653;50.080;21.992;2022-10-22T11:58:54;16.30;;;11.40;;
65871;SDS011;52653;50.080;21.992;2022-10-22T12:01:26;15.00;;;10.50;;
65871;SDS011;52653;50.080;21.992;2022-10-22T12:04:18;13.20;;;9.50;;
65871;SDS011;52653;50.080;21.992;2022-10-22T12:06:56;14.50;;;9.50;;
65871;SDS011;52653;50.080;21.992;2022-10-22T12:09:29;16.50;;;11.20;;
65871;SDS011;52653;50.080;21.992;2022-10-22T12:12:11;15.60;;;10.60;;
65871;SDS011;52653;50.080;21.992;2022-10-22T12:14:52;15.40;;;11.20;;
65871;SDS011;52653;50.080;21.992;2022-10-22T12:17:27;16.20;;;10.90;;
65871;SDS011;52653;50.080;21.992;2022-10-22T12:20:01;16.20;;;11.20;;
65871;SDS011;52653;50.080;21.992;2022-10-22T12:22:36;14.60;;;10.40;;
65871;SDS011;52653;50.080;21.992;2022-10-22T12:25:14;15.00;;;11.00;;
65871;SDS011;52653;50.080;21.992;2022-10-22T12:27:50;16.00;;;11.00;;
65871;SDS011;52653;50.080;21.992;2022-10-22T12:30:26;17.30;;;11.70;;
65871;SDS011;52653;50.080;21.992;2022-10-22T12:33:03;18.50;;;12.90;;
65871;SDS011;52653;50.080;21.992;2022-10-22T12:35:42;20.60;;;13.50;;
65871;SDS011;52653;50.080;21.992;2022-10-22T12:38:16;19.50;;;13.40;;
65871;SDS011;52653;50.080;21.992;2022-10-22T12:40:49;19.40;;;13.20;;
65871;SDS011;52653;50.080;21.992;2022-10-22T12:43:25;18.20;;;13.20;;
65871;SDS011;52653;50.080;21.992;2022-10-22T12:45:58;24.10;;;13.90;;
65871;SDS011;52653;50.080;21.992;2022-10-22T12:48:31;22.20;;;13.20;;
65871;SDS011;52653;50.080;21.992;2022-10-22T12:51:08;47.10;;;36.20;;
65871;SDS011;52653;50.080;21.992;2022-10-22T12:53:44;121.00;;;78.50;;
65871;SDS011;52653;50.080;21.992;2022-10-22T12:56:20;102.60;;;76.70;;
65871;SDS011;52653;50.080;21.992;2022-10-22T12:58:55;47.00;;;31.30;;
65871;SDS011;52653;50.080;21.992;2022-10-22T13:01:31;111.80;;;72.90;;
65871;SDS011;52653;50.080;21.992;2022-10-22T13:04:19;122.70;;;82.40;;
65871;SDS011;52653;50.080;21.992;2022-10-22T13:07:14;38.70;;;27.10;;
65871;SDS011;52653;50.080;21.992;2022-10-22T13:09:57;104.00;;;66.80;;
65871;SDS011;52653;50.080;21.992;2022-10-22T13:12:35;249.00;;;153.90;;
65871;SDS011;52653;50.080;21.992;2022-10-22T13:15:32;78.50;;;51.50;;
65871;SDS011;52653;50.080;21.992;2022-10-22T13:18:14;70.30;;;48.50;;
65871;SDS011;52653;50.080;21.992;2022-10-22T13:20:53;55.70;;;40.70;;
65871;SDS011;52653;50.080;21.992;2022-10-22T13:23:27;47.70;;;37.80;;
65871;SDS011;52653;50.080;21.992;2022-10-22T13:26:01;38.80;;;27.10;;
65871;SDS011;52653;50.080;21.992;2022-10-22T13:28:48;29.10;;;19.70;;
65871;SDS011;52653;50.080;21.992;2022-10-22T13:31:22;64.20;;;42.20;;
65871;SDS011;52653;50.080;21.992;2022-10-22T13:34:01;81.50;;;47.80;;
65871;SDS011;52653;50.080;21.992;2022-10-22T13:36:41;81.80;;;46.90;;
65871;SDS011;52653;50.080;21.992;2022-10-22T13:39:15;188.00;;;102.30;;
65871;SDS011;52653;50.080;21.992;2022-10-22T13:41:48;89.00;;;50.50;;
65871;SDS011;52653;50.080;21.992;2022-10-22T13:44:20;93.10;;;51.40;;
65871;SDS011;52653;50.080;21.992;2022-10-22T13:46:52;74.10;;;41.40;;
65871;SDS011;52653;50.080;21.992;2022-10-22T13:49:24;63.20;;;38.00;;
65871;SDS011;52653;50.080;21.992;2022-10-22T13:51:56;61.50;;;37.10;;
65871;SDS011;52653;50.080;21.992;2022-10-22T13:54:29;56.80;;;34.50;;
65871;SDS011;52653;50.080;21.992;2022-10-22T13:57:00;46.40;;;30.50;;
65871;SDS011;52653;50.080;21.992;2022-10-22T13:59:34;38.80;;;24.70;;
65871;SDS011;52653;50.080;21.992;2022-10-22T14:02:08;37.10;;;24.90;;
65871;SDS011;52653;50.080;21.992;2022-10-22T14:04:42;35.00;;;24.70;;
65871;SDS011;52653;50.080;21.992;2022-10-22T14:07:14;32.00;;;23.00;;
65871;SDS011;52653;50.080;21.992;2022-10-22T14:09:46;30.50;;;21.30;;
65871;SDS011;52653;50.080;21.992;2022-10-22T14:12:18;33.50;;;21.50;;
65871;SDS011;52653;50.080;21.992;2022-10-22T14:14:50;33.70;;;22.20;;
65871;SDS011;52653;50.080;21.992;2022-10-22T14:17:22;29.10;;;22.10;;
65871;SDS011;52653;50.080;21.992;2022-10-22T14:19:53;31.00;;;21.30;;
65871;SDS011;52653;50.080;21.992;2022-10-22T14:22:25;31.70;;;22.10;;
65871;SDS011;52653;50.080;21.992;2022-10-22T14:24:58;33.00;;;21.40;;
65871;SDS011;52653;50.080;21.992;2022-10-22T14:27:30;30.90;;;20.60;;
65871;SDS011;52653;50.080;21.992;2022-10-22T14:30:02;30.00;;;20.80;;
65871;SDS011;52653;50.080;21.992;2022-10-22T14:32:34;27.10;;;19.10;;
65871;SDS011;52653;50.080;21.992;2022-10-22T14:35:08;27.70;;;19.80;;
65871;SDS011;52653;50.080;21.992;2022-10-22T14:37:42;25.90;;;18.50;;
65871;SDS011;52653;50.080;21.992;2022-10-22T14:40:15;27.80;;;19.20;;
65871;SDS011;52653;50.080;21.992;2022-10-22T14:42:48;28.90;;;18.70;;
65871;SDS011;52653;50.080;21.992;2022-10-22T14:45:21;23.70;;;18.60;;
65871;SDS011;52653;50.080;21.992;2022-10-22T14:47:54;30.10;;;19.80;;
65871;SDS011;52653;50.080;21.992;2022-10-22T14:50:26;28.10;;;20.70;;
65871;SDS011;52653;50.080;21.992;2022-10-22T14:52:58;28.70;;;20.90;;
65871;SDS011;52653;50.080;21.992;2022-10-22T14:55:29;27.60;;;19.70;;
65871;SDS011;52653;50.080;21.992;2022-10-22T14:58:01;28.10;;;21.00;;
65871;SDS011;52653;50.080;21.992;2022-10-22T15:00:33;26.10;;;20.30;;
65871;SDS011;52653;50.080;21.992;2022-10-22T15:03:06;26.90;;;20.40;;
65871;SDS011;52653;50.080;21.992;2022-10-22T15:05:40;27.10;;;20.10;;
65871;SDS011;52653;50.080;21.992;2022-10-22T15:08:13;28.90;;;21.20;;
65871;SDS011;52653;50.080;21.992;2022-10-22T15:10:45;29.20;;;21.80;;
65871;SDS011;52653;50.080;21.992;2022-10-22T15:13:26;32.00;;;23.60;;
65871;SDS011;52653;50.080;21.992;2022-10-22T15:15:59;34.10;;;24.90;;
65871;SDS011;52653;50.080;21.992;2022-10-22T15:18:31;36.70;;;27.70;;
65871;SDS011;52653;50.080;21.992;2022-10-22T15:21:05;35.90;;;26.80;;
65871;SDS011;52653;50.080;21.992;2022-10-22T15:23:41;38.20;;;30.30;;
65871;SDS011;52653;50.080;21.992;2022-10-22T15:26:13;36.40;;;30.10;;